sensor_id;sensor_type;location;lat;lon;timestamp;temperature;humidity
16829;DHT22;8531;48.078;11.968;2023-02-15T00:01:35;-1.20;99.90
16829;DHT22;8531;48.078;11.968;2023-02-15T00:04:01;-1.20;99.90
16829;DHT22;8531;48.078;11.968;2023-02-15T00:06:27;-1.20;99.90
16829;DHT22;8531;48.078;11.968;2023-02-15T00:08:54;-1.10;99.90
16829;DHT22;8531;48.078;11.968;2023-02-15T00:11:20;-1.20;99.90
16829;DHT22;8531;48.078;11.968;2023-02-15T00:14:22;-1.20;99.90
16829;DHT22;8531;48.078;11.968;2023-02-15T00:16:50;-1.20;99.90
16829;DHT22;8531;48.078;11.968;2023-02-15T00:19:18;-1.20;99.90
16829;DHT22;8531;48.078;11.968;2023-02-15T00:21:44;-1.30;99.90
16829;DHT22;8531;48.078;11.968;2023-02-15T00:24:12;-1.20;99.90
16829;DHT22;8531;48.078;11.968;2023-02-15T00:26:40;-1.30;99.90
16829;DHT22;8531;48.078;11.968;2023-02-15T00:29:06;-1.20;99.90
16829;DHT22;8531;48.078;11.968;2023-02-15T00:31:33;-1.20;99.90
16829;DHT22;8531;48.078;11.968;2023-02-15T00:34:09;-1.10;99.90
16829;DHT22;8531;48.078;11.968;2023-02-15T00:36:36;-1.10;99.90
16829;DHT22;8531;48.078;11.968;2023-02-15T00:39:02;-0.90;99.90
16829;DHT22;8531;48.078;11.968;2023-02-15T00:41:30;-0.90;99.90
16829;DHT22;8531;48.078;11.968;2023-02-15T00:43:56;-1.00;99.90
16829;DHT22;8531;48.078;11.968;2023-02-15T00:46:22;-1.30;99.90
16829;DHT22;8531;48.078;11.968;2023-02-15T00:48:47;-1.10;99.90
16829;DHT22;8531;48.078;11.968;2023-02-15T00:51:13;-1.10;99.90
16829;DHT22;8531;48.078;11.968;2023-02-15T00:53:39;-0.90;99.90
16829;DHT22;8531;48.078;11.968;2023-02-15T00:56:04;-1.00;99.90
16829;DHT22;8531;48.078;11.968;2023-02-15T00:58:30;-1.10;99.90
16829;DHT22;8531;48.078;11.968;2023-02-15T01:01:06;-0.90;99.90
16829;DHT22;8531;48.078;11.968;2023-02-15T01:03:32;-1.00;99.90
16829;DHT22;8531;48.078;11.968;2023-02-15T01:05:58;-0.90;99.90
16829;DHT22;8531;48.078;11.968;2023-02-15T01:08:24;-1.10;99.90
16829;DHT22;8531;48.078;11.968;2023-02-15T01:10:50;-1.00;99.90
16829;DHT22;8531;48.078;11.968;2023-02-15T01:13:16;-1.00;99.90
16829;DHT22;8531;48.078;11.968;2023-02-15T01:15:43;-0.90;99.90
16829;DHT22;8531;48.078;11.968;2023-02-15T01:18:10;-0.90;99.90
16829;DHT22;8531;48.078;11.968;2023-02-15T01:20:38;-1.00;99.90
16829;DHT22;8531;48.078;11.968;2023-02-15T01:23:05;-0.90;99.90
16829;DHT22;8531;48.078;11.968;2023-02-15T01:25:33;-1.00;99.90
16829;DHT22;8531;48.078;11.968;2023-02-15T01:27:59;-1.00;99.90
16829;DHT22;8531;48.078;11.968;2023-02-15T01:30:25;-1.10;99.90
16829;DHT22;8531;48.078;11.968;2023-02-15T01:32:50;-1.00;99.90
16829;DHT22;8531;48.078;11.968;2023-02-15T01:35:16;-1.00;99.90
16829;DHT22;8531;48.078;11.968;2023-02-15T01:37:41;-1.00;99.90
16829;DHT22;8531;48.078;11.968;2023-02-15T01:40:12;-0.90;99.90
16829;DHT22;8531;48.078;11.968;2023-02-15T01:42:38;-1.00;99.90
16829;DHT22;8531;48.078;11.968;2023-02-15T01:45:18;-1.00;99.90
16829;DHT22;8531;48.078;11.968;2023-02-15T01:50:38;-1.00;99.90
16829;DHT22;8531;48.078;11.968;2023-02-15T01:53:27;-0.90;99.90
16829;DHT22;8531;48.078;11.968;2023-02-15T01:56:20;-1.00;99.90
16829;DHT22;8531;48.078;11.968;2023-02-15T01:58:46;-1.10;99.90
16829;DHT22;8531;48.078;11.968;2023-02-15T02:01:13;-1.10;99.90
16829;DHT22;8531;48.078;11.968;2023-02-15T02:04:16;-1.00;99.90
16829;DHT22;8531;48.078;11.968;2023-02-15T02:06:46;-1.00;99.90
16829;DHT22;8531;48.078;11.968;2023-02-15T02:09:11;-1.00;99.90
16829;DHT22;8531;48.078;11.968;2023-02-15T02:11:39;-1.00;99.90
16829;DHT22;8531;48.078;11.968;2023-02-15T02:14:06;-1.10;99.90
16829;DHT22;8531;48.078;11.968;2023-02-15T02:31:00;-1.10;99.90
16829;DHT22;8531;48.078;11.968;2023-02-15T02:44:36;-1.10;99.90
16829;DHT22;8531;48.078;11.968;2023-02-15T02:49:39;-1.20;99.90
16829;DHT22;8531;48.078;11.968;2023-02-15T02:52:33;-1.10;99.90
16829;DHT22;8531;48.078;11.968;2023-02-15T02:54:54;-1.10;99.90
16829;DHT22;8531;48.078;11.968;2023-02-15T02:57:21;-1.10;99.90
16829;DHT22;8531;48.078;11.968;2023-02-15T02:59:50;-1.20;99.90
16829;DHT22;8531;48.078;11.968;2023-02-15T03:02:24;-1.20;99.90
16829;DHT22;8531;48.078;11.968;2023-02-15T03:05:00;-1.20;99.90
16829;DHT22;8531;48.078;11.968;2023-02-15T03:07:31;-1.20;99.90
16829;DHT22;8531;48.078;11.968;2023-02-15T03:09:59;-1.00;99.90
16829;DHT22;8531;48.078;11.968;2023-02-15T03:12:37;-1.10;99.90
16829;DHT22;8531;48.078;11.968;2023-02-15T03:15:06;-1.10;99.90
16829;DHT22;8531;48.078;11.968;2023-02-15T03:17:37;-1.10;99.90
16829;DHT22;8531;48.078;11.968;2023-02-15T03:20:14;-1.10;99.90
16829;DHT22;8531;48.078;11.968;2023-02-15T03:22:51;-1.10;99.90
16829;DHT22;8531;48.078;11.968;2023-02-15T03:25:27;-1.10;99.90
16829;DHT22;8531;48.078;11.968;2023-02-15T03:27:59;-1.20;99.90
16829;DHT22;8531;48.078;11.968;2023-02-15T03:30:27;-1.20;99.90
16829;DHT22;8531;48.078;11.968;2023-02-15T03:32:56;-1.30;99.90
16829;DHT22;8531;48.078;11.968;2023-02-15T03:35:26;-1.20;99.90
16829;DHT22;8531;48.078;11.968;2023-02-15T03:38:01;-1.20;99.90
16829;DHT22;8531;48.078;11.968;2023-02-15T03:40:38;-1.10;99.90
16829;DHT22;8531;48.078;11.968;2023-02-15T03:43:34;-1.00;99.90
16829;DHT22;8531;48.078;11.968;2023-02-15T03:48:42;-1.30;99.90
16829;DHT22;8531;48.078;11.968;2023-02-15T03:51:12;-1.30;99.90
16829;DHT22;8531;48.078;11.968;2023-02-15T03:54:18;-1.40;99.90
16829;DHT22;8531;48.078;11.968;2023-02-15T03:57:05;-1.50;99.90
16829;DHT22;8531;48.078;11.968;2023-02-15T03:59:51;-1.50;99.90
16829;DHT22;8531;48.078;11.968;2023-02-15T04:03:12;-1.50;99.90
16829;DHT22;8531;48.078;11.968;2023-02-15T04:05:43;-1.20;99.90
16829;DHT22;8531;48.078;11.968;2023-02-15T04:08:10;-1.20;99.90
16829;DHT22;8531;48.078;11.968;2023-02-15T04:10:36;-1.30;99.90
16829;DHT22;8531;48.078;11.968;2023-02-15T04:13:30;-1.30;99.90
16829;DHT22;8531;48.078;11.968;2023-02-15T04:15:56;-1.20;99.90
16829;DHT22;8531;48.078;11.968;2023-02-15T04:18:42;-1.30;99.90
16829;DHT22;8531;48.078;11.968;2023-02-15T04:21:29;-1.10;99.90
16829;DHT22;8531;48.078;11.968;2023-02-15T04:24:14;-1.00;99.90
16829;DHT22;8531;48.078;11.968;2023-02-15T04:27:00;-0.90;99.90
16829;DHT22;8531;48.078;11.968;2023-02-15T04:29:27;-0.90;99.90
16829;DHT22;8531;48.078;11.968;2023-02-15T04:31:54;-1.00;99.90
16829;DHT22;8531;48.078;11.968;2023-02-15T04:34:21;-1.00;99.90
16829;DHT22;8531;48.078;11.968;2023-02-15T04:36:46;-1.00;99.90
16829;DHT22;8531;48.078;11.968;2023-02-15T04:39:13;-1.10;99.90
16829;DHT22;8531;48.078;11.968;2023-02-15T04:41:40;-1.20;99.90
16829;DHT22;8531;48.078;11.968;2023-02-15T04:44:06;-1.20;99.90
16829;DHT22;8531;48.078;11.968;2023-02-15T04:46:32;-1.20;99.90
16829;DHT22;8531;48.078;11.968;2023-02-15T04:48:57;-1.10;99.90
16829;DHT22;8531;48.078;11.968;2023-02-15T04:51:23;-1.10;99.90
16829;DHT22;8531;48.078;11.968;2023-02-15T04:53:49;-1.00;99.90
16829;DHT22;8531;48.078;11.968;2023-02-15T04:56:18;-1.10;99.90
16829;DHT22;8531;48.078;11.968;2023-02-15T04:58:44;-1.10;99.90
16829;DHT22;8531;48.078;11.968;2023-02-15T05:01:10;-1.10;99.90
16829;DHT22;8531;48.078;11.968;2023-02-15T05:03:36;-1.10;99.90
16829;DHT22;8531;48.078;11.968;2023-02-15T05:06:02;-1.00;99.90
16829;DHT22;8531;48.078;11.968;2023-02-15T05:08:28;-1.10;99.90
16829;DHT22;8531;48.078;11.968;2023-02-15T05:10:54;-1.10;99.90
16829;DHT22;8531;48.078;11.968;2023-02-15T05:13:19;-1.10;99.90
16829;DHT22;8531;48.078;11.968;2023-02-15T05:15:50;-1.00;99.90
16829;DHT22;8531;48.078;11.968;2023-02-15T05:18:18;-1.20;99.90
16829;DHT22;8531;48.078;11.968;2023-02-15T05:20:43;-1.30;99.90
16829;DHT22;8531;48.078;11.968;2023-02-15T05:23:09;-1.30;99.90
16829;DHT22;8531;48.078;11.968;2023-02-15T05:25:35;-1.20;99.90
16829;DHT22;8531;48.078;11.968;2023-02-15T05:28:20;-1.20;99.90
16829;DHT22;8531;48.078;11.968;2023-02-15T05:31:02;-1.20;99.90
16829;DHT22;8531;48.078;11.968;2023-02-15T05:33:28;-1.10;99.90
16829;DHT22;8531;48.078;11.968;2023-02-15T05:35:54;-1.20;99.90
16829;DHT22;8531;48.078;11.968;2023-02-15T05:38:19;-1.30;99.90
16829;DHT22;8531;48.078;11.968;2023-02-15T05:40:45;-1.30;99.90
16829;DHT22;8531;48.078;11.968;2023-02-15T05:43:11;-1.40;99.90
16829;DHT22;8531;48.078;11.968;2023-02-15T05:45:36;-1.40;99.90
16829;DHT22;8531;48.078;11.968;2023-02-15T05:48:02;-1.60;99.90
16829;DHT22;8531;48.078;11.968;2023-02-15T05:50:28;-1.50;99.90
16829;DHT22;8531;48.078;11.968;2023-02-15T05:52:53;-1.60;99.90
16829;DHT22;8531;48.078;11.968;2023-02-15T05:55:19;-1.50;99.90
16829;DHT22;8531;48.078;11.968;2023-02-15T05:57:45;-1.50;99.90
16829;DHT22;8531;48.078;11.968;2023-02-15T06:00:12;-1.50;99.90
16829;DHT22;8531;48.078;11.968;2023-02-15T06:02:39;-1.50;99.90
16829;DHT22;8531;48.078;11.968;2023-02-15T06:05:06;-1.60;99.90
16829;DHT22;8531;48.078;11.968;2023-02-15T06:07:32;-1.50;99.90
16829;DHT22;8531;48.078;11.968;2023-02-15T06:09:57;-1.40;99.90
16829;DHT22;8531;48.078;11.968;2023-02-15T06:12:23;-1.50;99.90
16829;DHT22;8531;48.078;11.968;2023-02-15T06:14:49;-1.60;99.90
16829;DHT22;8531;48.078;11.968;2023-02-15T06:17:15;-1.60;99.90
16829;DHT22;8531;48.078;11.968;2023-02-15T06:19:42;-1.70;99.90
16829;DHT22;8531;48.078;11.968;2023-02-15T06:22:07;-1.70;99.90
16829;DHT22;8531;48.078;11.968;2023-02-15T06:24:33;-1.80;99.90
16829;DHT22;8531;48.078;11.968;2023-02-15T06:26:59;-1.60;99.90
16829;DHT22;8531;48.078;11.968;2023-02-15T06:29:24;-1.60;99.90
16829;DHT22;8531;48.078;11.968;2023-02-15T06:31:50;-1.40;99.90
16829;DHT22;8531;48.078;11.968;2023-02-15T06:34:16;-1.50;99.90
16829;DHT22;8531;48.078;11.968;2023-02-15T06:36:41;-1.50;99.90
16829;DHT22;8531;48.078;11.968;2023-02-15T06:39:07;-1.40;99.90
16829;DHT22;8531;48.078;11.968;2023-02-15T06:41:33;-1.40;99.90
16829;DHT22;8531;48.078;11.968;2023-02-15T06:43:58;-1.40;99.90
16829;DHT22;8531;48.078;11.968;2023-02-15T06:46:24;-1.30;99.90
16829;DHT22;8531;48.078;11.968;2023-02-15T06:48:50;-1.50;99.90
16829;DHT22;8531;48.078;11.968;2023-02-15T06:51:15;-1.40;99.90
16829;DHT22;8531;48.078;11.968;2023-02-15T06:53:41;-1.40;99.90
16829;DHT22;8531;48.078;11.968;2023-02-15T06:56:09;-1.40;99.90
16829;DHT22;8531;48.078;11.968;2023-02-15T06:58:38;-1.40;99.90
16829;DHT22;8531;48.078;11.968;2023-02-15T07:01:06;-1.60;99.90
16829;DHT22;8531;48.078;11.968;2023-02-15T07:03:32;-1.50;99.90
16829;DHT22;8531;48.078;11.968;2023-02-15T07:06:00;-1.60;99.90
16829;DHT22;8531;48.078;11.968;2023-02-15T07:08:27;-1.60;99.90
16829;DHT22;8531;48.078;11.968;2023-02-15T07:10:54;-1.50;99.90
16829;DHT22;8531;48.078;11.968;2023-02-15T07:13:20;-1.60;99.90
16829;DHT22;8531;48.078;11.968;2023-02-15T07:15:47;-1.70;99.90
16829;DHT22;8531;48.078;11.968;2023-02-15T07:18:13;-1.60;99.90
16829;DHT22;8531;48.078;11.968;2023-02-15T07:20:39;-1.80;99.90
16829;DHT22;8531;48.078;11.968;2023-02-15T07:23:07;-1.80;99.90
16829;DHT22;8531;48.078;11.968;2023-02-15T07:25:33;-1.70;99.90
16829;DHT22;8531;48.078;11.968;2023-02-15T07:28:01;-1.70;99.90
16829;DHT22;8531;48.078;11.968;2023-02-15T07:30:27;-1.80;99.90
16829;DHT22;8531;48.078;11.968;2023-02-15T07:32:59;-1.80;99.90
16829;DHT22;8531;48.078;11.968;2023-02-15T07:35:51;-1.70;99.90
16829;DHT22;8531;48.078;11.968;2023-02-15T07:38:17;-1.80;99.90
16829;DHT22;8531;48.078;11.968;2023-02-15T07:40:44;-1.70;99.90
16829;DHT22;8531;48.078;11.968;2023-02-15T07:43:10;-1.50;99.90
16829;DHT22;8531;48.078;11.968;2023-02-15T07:45:36;-1.50;99.90
16829;DHT22;8531;48.078;11.968;2023-02-15T07:48:02;-1.40;99.90
16829;DHT22;8531;48.078;11.968;2023-02-15T07:50:28;-1.40;99.90
16829;DHT22;8531;48.078;11.968;2023-02-15T07:52:53;-1.50;99.90
16829;DHT22;8531;48.078;11.968;2023-02-15T07:55:19;-1.60;99.90
16829;DHT22;8531;48.078;11.968;2023-02-15T07:57:47;-1.60;99.90
16829;DHT22;8531;48.078;11.968;2023-02-15T08:00:14;-1.70;99.90
16829;DHT22;8531;48.078;11.968;2023-02-15T08:02:40;-1.60;99.90
16829;DHT22;8531;48.078;11.968;2023-02-15T08:05:07;-1.40;99.90
16829;DHT22;8531;48.078;11.968;2023-02-15T08:07:33;-1.20;99.90
16829;DHT22;8531;48.078;11.968;2023-02-15T08:09:58;-1.20;99.90
16829;DHT22;8531;48.078;11.968;2023-02-15T08:12:27;-1.20;99.90
16829;DHT22;8531;48.078;11.968;2023-02-15T08:14:53;-1.20;99.90
16829;DHT22;8531;48.078;11.968;2023-02-15T08:17:19;-1.20;99.90
16829;DHT22;8531;48.078;11.968;2023-02-15T08:19:44;-1.20;99.90
16829;DHT22;8531;48.078;11.968;2023-02-15T08:22:13;-1.20;99.90
16829;DHT22;8531;48.078;11.968;2023-02-15T08:24:39;-1.10;99.90
16829;DHT22;8531;48.078;11.968;2023-02-15T08:27:07;-1.10;99.90
16829;DHT22;8531;48.078;11.968;2023-02-15T08:29:35;-1.10;99.90
16829;DHT22;8531;48.078;11.968;2023-02-15T08:32:04;-1.00;99.90
16829;DHT22;8531;48.078;11.968;2023-02-15T08:34:35;-0.90;99.90
16829;DHT22;8531;48.078;11.968;2023-02-15T08:37:01;-0.80;99.90
16829;DHT22;8531;48.078;11.968;2023-02-15T08:39:27;-0.80;99.90
16829;DHT22;8531;48.078;11.968;2023-02-15T08:41:53;-0.90;99.90
16829;DHT22;8531;48.078;11.968;2023-02-15T08:44:19;-0.70;99.90
16829;DHT22;8531;48.078;11.968;2023-02-15T08:46:47;-0.80;99.90
16829;DHT22;8531;48.078;11.968;2023-02-15T08:49:16;-0.70;99.90
16829;DHT22;8531;48.078;11.968;2023-02-15T08:51:43;-0.70;99.90
16829;DHT22;8531;48.078;11.968;2023-02-15T08:54:12;-0.70;99.90
16829;DHT22;8531;48.078;11.968;2023-02-15T08:56:40;-0.70;99.90
16829;DHT22;8531;48.078;11.968;2023-02-15T08:59:07;-0.50;99.90
16829;DHT22;8531;48.078;11.968;2023-02-15T09:01:34;-0.50;99.90
16829;DHT22;8531;48.078;11.968;2023-02-15T09:04:05;-0.40;99.90
16829;DHT22;8531;48.078;11.968;2023-02-15T09:06:32;-0.30;99.90
16829;DHT22;8531;48.078;11.968;2023-02-15T09:08:57;-0.30;99.90
16829;DHT22;8531;48.078;11.968;2023-02-15T09:11:25;-0.30;99.90
16829;DHT22;8531;48.078;11.968;2023-02-15T09:14:00;-0.40;99.90
16829;DHT22;8531;48.078;11.968;2023-02-15T09:16:28;-0.30;99.90
16829;DHT22;8531;48.078;11.968;2023-02-15T09:18:54;-0.20;99.90
16829;DHT22;8531;48.078;11.968;2023-02-15T09:21:22;-0.30;99.90
16829;DHT22;8531;48.078;11.968;2023-02-15T09:23:51;-0.20;99.90
16829;DHT22;8531;48.078;11.968;2023-02-15T09:26:19;-0.10;99.90
16829;DHT22;8531;48.078;11.968;2023-02-15T09:28:46;0.00;99.90
16829;DHT22;8531;48.078;11.968;2023-02-15T09:31:14;0.10;99.90
16829;DHT22;8531;48.078;11.968;2023-02-15T09:33:41;0.30;99.90
16829;DHT22;8531;48.078;11.968;2023-02-15T09:38:47;0.50;99.90
16829;DHT22;8531;48.078;11.968;2023-02-15T09:52:34;0.80;99.90
16829;DHT22;8531;48.078;11.968;2023-02-15T09:55:30;0.80;99.90
16829;DHT22;8531;48.078;11.968;2023-02-15T10:01:03;0.80;99.90
16829;DHT22;8531;48.078;11.968;2023-02-15T10:03:40;1.10;99.90
16829;DHT22;8531;48.078;11.968;2023-02-15T10:16:54;1.20;99.90
16829;DHT22;8531;48.078;11.968;2023-02-15T10:27:49;1.70;99.90
16829;DHT22;8531;48.078;11.968;2023-02-15T10:39:08;2.00;99.90
16829;DHT22;8531;48.078;11.968;2023-02-15T10:47:17;2.20;99.90
16829;DHT22;8531;48.078;11.968;2023-02-15T10:52:42;2.40;99.90
16829;DHT22;8531;48.078;11.968;2023-02-15T11:01:02;2.60;99.90
16829;DHT22;8531;48.078;11.968;2023-02-15T11:03:56;2.70;99.90
16829;DHT22;8531;48.078;11.968;2023-02-15T11:06:30;2.90;99.90
16829;DHT22;8531;48.078;11.968;2023-02-15T11:09:02;3.00;99.90
16829;DHT22;8531;48.078;11.968;2023-02-15T11:11:36;3.10;99.90
16829;DHT22;8531;48.078;11.968;2023-02-15T11:14:39;3.20;99.90
16829;DHT22;8531;48.078;11.968;2023-02-15T11:17:16;3.40;99.90
16829;DHT22;8531;48.078;11.968;2023-02-15T11:19:50;3.70;99.90
16829;DHT22;8531;48.078;11.968;2023-02-15T11:22:17;3.60;99.90
16829;DHT22;8531;48.078;11.968;2023-02-15T11:24:45;3.80;99.90
16829;DHT22;8531;48.078;11.968;2023-02-15T11:29:59;3.60;99.90
16829;DHT22;8531;48.078;11.968;2023-02-15T11:32:55;3.90;99.90
16829;DHT22;8531;48.078;11.968;2023-02-15T11:35:36;4.00;99.90
16829;DHT22;8531;48.078;11.968;2023-02-15T11:38:21;4.30;99.90
16829;DHT22;8531;48.078;11.968;2023-02-15T11:41:01;4.40;99.90
16829;DHT22;8531;48.078;11.968;2023-02-15T11:43:39;4.80;99.90
16829;DHT22;8531;48.078;11.968;2023-02-15T11:46:10;5.00;99.90
16829;DHT22;8531;48.078;11.968;2023-02-15T11:48:36;5.30;99.90
16829;DHT22;8531;48.078;11.968;2023-02-15T11:51:03;5.20;99.90
16829;DHT22;8531;48.078;11.968;2023-02-15T11:53:32;5.30;99.90
16829;DHT22;8531;48.078;11.968;2023-02-15T11:55:59;5.50;99.90
16829;DHT22;8531;48.078;11.968;2023-02-15T12:01:02;5.80;99.90
16829;DHT22;8531;48.078;11.968;2023-02-15T12:03:47;6.10;99.90
16829;DHT22;8531;48.078;11.968;2023-02-15T12:06:30;6.20;99.90
16829;DHT22;8531;48.078;11.968;2023-02-15T12:09:24;6.20;99.90
16829;DHT22;8531;48.078;11.968;2023-02-15T12:11:51;6.30;99.90
16829;DHT22;8531;48.078;11.968;2023-02-15T12:14:17;6.60;99.90
16829;DHT22;8531;48.078;11.968;2023-02-15T12:16:49;6.80;99.90
16829;DHT22;8531;48.078;11.968;2023-02-15T12:19:37;7.00;99.90
16829;DHT22;8531;48.078;11.968;2023-02-15T12:22:06;7.30;99.90
16829;DHT22;8531;48.078;11.968;2023-02-15T12:24:47;7.50;99.90
16829;DHT22;8531;48.078;11.968;2023-02-15T12:27:18;7.40;99.90
16829;DHT22;8531;48.078;11.968;2023-02-15T12:32:56;7.50;99.90
16829;DHT22;8531;48.078;11.968;2023-02-15T12:37:56;7.40;99.90
16829;DHT22;8531;48.078;11.968;2023-02-15T12:40:29;7.30;99.90
16829;DHT22;8531;48.078;11.968;2023-02-15T12:42:56;7.40;99.90
16829;DHT22;8531;48.078;11.968;2023-02-15T12:45:31;7.40;99.90
16829;DHT22;8531;48.078;11.968;2023-02-15T12:50:50;7.40;99.90
16829;DHT22;8531;48.078;11.968;2023-02-15T12:53:22;7.40;99.90
16829;DHT22;8531;48.078;11.968;2023-02-15T12:56:15;7.40;99.90
16829;DHT22;8531;48.078;11.968;2023-02-15T12:59:04;7.30;99.90
16829;DHT22;8531;48.078;11.968;2023-02-15T13:01:32;7.40;99.90
16829;DHT22;8531;48.078;11.968;2023-02-15T13:04:05;7.30;99.90
16829;DHT22;8531;48.078;11.968;2023-02-15T13:06:33;7.40;99.90
16829;DHT22;8531;48.078;11.968;2023-02-15T13:09:16;7.20;99.90
16829;DHT22;8531;48.078;11.968;2023-02-15T13:11:44;7.30;99.90
16829;DHT22;8531;48.078;11.968;2023-02-15T13:14:30;7.30;99.90
16829;DHT22;8531;48.078;11.968;2023-02-15T13:16:58;7.40;99.90
16829;DHT22;8531;48.078;11.968;2023-02-15T13:19:39;7.50;99.90
16829;DHT22;8531;48.078;11.968;2023-02-15T13:22:10;7.50;99.90
16829;DHT22;8531;48.078;11.968;2023-02-15T13:24:48;7.60;99.90
16829;DHT22;8531;48.078;11.968;2023-02-15T13:27:19;7.60;99.90
16829;DHT22;8531;48.078;11.968;2023-02-15T13:29:52;7.60;99.90
16829;DHT22;8531;48.078;11.968;2023-02-15T13:34:57;7.70;99.90
16829;DHT22;8531;48.078;11.968;2023-02-15T13:40:10;7.70;99.90
16829;DHT22;8531;48.078;11.968;2023-02-15T13:45:27;7.70;99.90
16829;DHT22;8531;48.078;11.968;2023-02-15T13:53:25;7.70;99.90
16829;DHT22;8531;48.078;11.968;2023-02-15T14:07:05;7.80;99.90
16829;DHT22;8531;48.078;11.968;2023-02-15T14:17:59;7.90;99.90
16829;DHT22;8531;48.078;11.968;2023-02-15T14:20:57;7.90;99.90
16829;DHT22;8531;48.078;11.968;2023-02-15T14:31:55;8.10;99.90
16829;DHT22;8531;48.078;11.968;2023-02-15T14:34:24;8.00;99.90
16829;DHT22;8531;48.078;11.968;2023-02-15T14:36:51;8.10;99.90
16829;DHT22;8531;48.078;11.968;2023-02-15T14:45:33;8.10;99.90
16829;DHT22;8531;48.078;11.968;2023-02-15T14:48:17;8.20;99.90
16829;DHT22;8531;48.078;11.968;2023-02-15T14:50:48;8.20;99.90
16829;DHT22;8531;48.078;11.968;2023-02-15T14:58:55;8.20;99.90
16829;DHT22;8531;48.078;11.968;2023-02-15T15:01:30;8.10;99.90
16829;DHT22;8531;48.078;11.968;2023-02-15T15:04:27;8.20;99.90
16829;DHT22;8531;48.078;11.968;2023-02-15T15:07:24;8.20;99.90
16829;DHT22;8531;48.078;11.968;2023-02-15T15:09:59;8.20;99.90
16829;DHT22;8531;48.078;11.968;2023-02-15T15:14:57;8.20;99.90
16829;DHT22;8531;48.078;11.968;2023-02-15T15:20:00;8.10;99.90
16829;DHT22;8531;48.078;11.968;2023-02-15T15:22:28;8.10;99.90
16829;DHT22;8531;48.078;11.968;2023-02-15T15:25:01;8.10;99.90
16829;DHT22;8531;48.078;11.968;2023-02-15T15:27:52;8.10;99.90
16829;DHT22;8531;48.078;11.968;2023-02-15T15:49:40;7.70;99.90
16829;DHT22;8531;48.078;11.968;2023-02-15T15:52:14;7.60;99.90
16829;DHT22;8531;48.078;11.968;2023-02-15T15:54:41;7.60;99.90
16829;DHT22;8531;48.078;11.968;2023-02-15T15:57:38;7.50;99.90
16829;DHT22;8531;48.078;11.968;2023-02-15T16:00:00;7.50;99.90
16829;DHT22;8531;48.078;11.968;2023-02-15T16:02:27;7.40;99.90
16829;DHT22;8531;48.078;11.968;2023-02-15T16:04:53;7.40;99.90
16829;DHT22;8531;48.078;11.968;2023-02-15T16:12:23;7.30;99.90
16829;DHT22;8531;48.078;11.968;2023-02-15T16:14:49;7.30;99.90
16829;DHT22;8531;48.078;11.968;2023-02-15T16:17:22;7.20;99.90
16829;DHT22;8531;48.078;11.968;2023-02-15T16:19:49;7.20;99.90
16829;DHT22;8531;48.078;11.968;2023-02-15T16:22:23;7.10;99.90
16829;DHT22;8531;48.078;11.968;2023-02-15T16:25:15;7.00;99.90
16829;DHT22;8531;48.078;11.968;2023-02-15T16:27:46;6.90;99.90
16829;DHT22;8531;48.078;11.968;2023-02-15T16:30:33;6.70;99.90
16829;DHT22;8531;48.078;11.968;2023-02-15T16:33:08;6.60;99.90
16829;DHT22;8531;48.078;11.968;2023-02-15T16:35:36;6.60;99.90
16829;DHT22;8531;48.078;11.968;2023-02-15T16:38:02;6.50;99.90
16829;DHT22;8531;48.078;11.968;2023-02-15T16:43:04;6.40;99.90
16829;DHT22;8531;48.078;11.968;2023-02-15T16:45:33;6.40;99.90
16829;DHT22;8531;48.078;11.968;2023-02-15T16:48:07;6.30;99.90
16829;DHT22;8531;48.078;11.968;2023-02-15T16:50:37;6.20;99.90
16829;DHT22;8531;48.078;11.968;2023-02-15T16:53:05;6.20;99.90
16829;DHT22;8531;48.078;11.968;2023-02-15T16:55:40;6.10;99.90
16829;DHT22;8531;48.078;11.968;2023-02-15T16:58:12;6.00;99.90
16829;DHT22;8531;48.078;11.968;2023-02-15T17:00:39;5.90;99.90
16829;DHT22;8531;48.078;11.968;2023-02-15T17:08:27;5.50;99.90
16829;DHT22;8531;48.078;11.968;2023-02-15T17:13:26;5.40;99.90
16829;DHT22;8531;48.078;11.968;2023-02-15T17:18:23;5.40;99.90
16829;DHT22;8531;48.078;11.968;2023-02-15T17:20:52;5.30;99.90
16829;DHT22;8531;48.078;11.968;2023-02-15T17:23:22;5.40;99.90
16829;DHT22;8531;48.078;11.968;2023-02-15T17:25:51;5.30;99.90
16829;DHT22;8531;48.078;11.968;2023-02-15T17:28:25;5.30;99.90
16829;DHT22;8531;48.078;11.968;2023-02-15T17:30:52;5.30;99.90
16829;DHT22;8531;48.078;11.968;2023-02-15T17:33:25;5.20;99.90
16829;DHT22;8531;48.078;11.968;2023-02-15T17:36:19;5.20;99.90
16829;DHT22;8531;48.078;11.968;2023-02-15T17:39:20;5.10;99.90
16829;DHT22;8531;48.078;11.968;2023-02-15T17:41:46;5.10;99.90
16829;DHT22;8531;48.078;11.968;2023-02-15T17:44:13;5.00;99.90
16829;DHT22;8531;48.078;11.968;2023-02-15T17:46:41;4.90;99.90
16829;DHT22;8531;48.078;11.968;2023-02-15T17:49:18;4.80;99.90
16829;DHT22;8531;48.078;11.968;2023-02-15T17:51:46;4.70;99.90
16829;DHT22;8531;48.078;11.968;2023-02-15T17:54:11;4.60;99.90
16829;DHT22;8531;48.078;11.968;2023-02-15T17:56:56;4.60;99.90
16829;DHT22;8531;48.078;11.968;2023-02-15T17:59:27;4.50;99.90
16829;DHT22;8531;48.078;11.968;2023-02-15T18:01:53;4.40;99.90
16829;DHT22;8531;48.078;11.968;2023-02-15T18:04:37;4.30;99.90
16829;DHT22;8531;48.078;11.968;2023-02-15T18:07:21;4.20;99.90
16829;DHT22;8531;48.078;11.968;2023-02-15T18:10:14;4.10;99.90
16829;DHT22;8531;48.078;11.968;2023-02-15T18:12:59;4.00;99.90
16829;DHT22;8531;48.078;11.968;2023-02-15T18:15:24;4.00;99.90
16829;DHT22;8531;48.078;11.968;2023-02-15T18:17:50;3.80;99.90
16829;DHT22;8531;48.078;11.968;2023-02-15T18:20:23;3.80;99.90
16829;DHT22;8531;48.078;11.968;2023-02-15T18:22:51;3.80;99.90
16829;DHT22;8531;48.078;11.968;2023-02-15T18:25:19;3.70;99.90
16829;DHT22;8531;48.078;11.968;2023-02-15T18:27:45;3.70;99.90
16829;DHT22;8531;48.078;11.968;2023-02-15T18:30:16;3.70;99.90
16829;DHT22;8531;48.078;11.968;2023-02-15T18:32:42;3.60;99.90
16829;DHT22;8531;48.078;11.968;2023-02-15T18:35:15;3.50;99.90
16829;DHT22;8531;48.078;11.968;2023-02-15T18:37:41;3.50;99.90
16829;DHT22;8531;48.078;11.968;2023-02-15T18:40:17;3.40;99.90
16829;DHT22;8531;48.078;11.968;2023-02-15T18:42:43;3.30;99.90
16829;DHT22;8531;48.078;11.968;2023-02-15T18:45:16;3.20;99.90
16829;DHT22;8531;48.078;11.968;2023-02-15T18:47:42;3.20;99.90
16829;DHT22;8531;48.078;11.968;2023-02-15T18:50:08;3.10;99.90
16829;DHT22;8531;48.078;11.968;2023-02-15T18:52:36;3.10;99.90
16829;DHT22;8531;48.078;11.968;2023-02-15T18:55:11;3.10;99.90
16829;DHT22;8531;48.078;11.968;2023-02-15T18:57:38;3.10;99.90
16829;DHT22;8531;48.078;11.968;2023-02-15T19:00:14;3.00;99.90
16829;DHT22;8531;48.078;11.968;2023-02-15T19:02:41;2.90;99.90
16829;DHT22;8531;48.078;11.968;2023-02-15T19:05:07;2.90;99.90
16829;DHT22;8531;48.078;11.968;2023-02-15T19:07:34;2.80;99.90
16829;DHT22;8531;48.078;11.968;2023-02-15T19:10:00;2.80;99.90
16829;DHT22;8531;48.078;11.968;2023-02-15T19:12:30;2.70;99.90
16829;DHT22;8531;48.078;11.968;2023-02-15T19:14:57;2.60;99.90
16829;DHT22;8531;48.078;11.968;2023-02-15T19:17:23;2.60;99.90
16829;DHT22;8531;48.078;11.968;2023-02-15T19:19:50;2.50;99.90
16829;DHT22;8531;48.078;11.968;2023-02-15T19:22:28;2.40;99.90
16829;DHT22;8531;48.078;11.968;2023-02-15T19:24:57;2.40;99.90